Time;durP1;ratioP1;P1;durP2;ratioP2;P2;SDS_P1;SDS_P2;PMS_P1;PMS_P2;Temp;Humidity;BMP_temperature;BMP_pressure;BME280_temperature;BME280_humidity;BME280_pressure;Samples;Min_cycle;Max_cycle;Signal;HPM_P1;HPM_P2
2022/05/16 00:01:31;;;;;;;;;;;24.20;48.80;;;;;;6166336;28;19927;-55
2022/05/16 00:04:34;;;;;;;;;;;24.00;48.70;;;;;;6185259;28;19940;-53
2022/05/16 00:07:37;;;;;;;;;;;24.10;48.70;;;;;;6186693;28;20031;-54
2022/05/16 00:10:38;;;;;;;;;;;24.00;48.70;;;;;;6184538;28;20041;-54
2022/05/16 00:13:39;;;;;;;;;;;24.20;48.80;;;;;;6185917;28;20853;-51
2022/05/16 00:16:41;;;;;;;;;;;24.30;48.90;;;;;;6172934;28;19947;-51
2022/05/16 00:19:43;;;;;;;;;;;24.10;48.70;;;;;;6166591;28;19948;-52
2022/05/16 00:22:44;;;;;;;;;;;24.00;48.70;;;;;;6179587;28;20184;-55
2022/05/16 00:25:46;;;;;;;;;;;23.80;48.60;;;;;;6185653;28;20982;-54
2022/05/16 00:28:47;;;;;;;;;;;24.20;48.80;;;;;;6184266;28;19975;-52
2022/05/16 00:31:49;;;;;;;;;;;24.10;48.80;;;;;;6182340;28;20032;-52
2022/05/16 00:34:50;;;;;;;;;;;24.00;48.70;;;;;;6178378;28;20160;-51
2022/05/16 00:37:52;;;;;;;;;;;24.10;48.80;;;;;;6163045;28;19936;-52
2022/05/16 00:40:56;;;;;;;;;;;24.10;48.90;;;;;;6173595;28;20328;-51
2022/05/16 00:43:58;;;;;;;;;;;24.30;48.90;;;;;;6185950;28;19921;-52
2022/05/16 00:47:00;;;;;;;;;;;24.00;48.70;;;;;;6168559;28;19929;-53
2022/05/16 00:50:03;;;;;;;;;;;24.10;48.80;;;;;;6190224;28;20742;-53
2022/05/16 00:53:06;;;;;;;;;;;24.10;48.80;;;;;;6187495;28;19929;-53
2022/05/16 00:56:07;;;;;;;;;;;23.80;48.70;;;;;;6190294;28;19925;-51
2022/05/16 00:59:11;;;;;;;;;;;23.80;49.30;;;;;;6189977;28;19927;-51
2022/05/16 01:05:29;;;;;;;;;;;24.00;48.80;;;;;;6186376;28;19929;-52
2022/05/16 01:08:32;;;;;;;;;;;23.70;48.70;;;;;;6186145;28;20050;-52
2022/05/16 01:11:35;;;;;;;;;;;24.10;48.90;;;;;;6192607;28;19936;-54
2022/05/16 01:14:38;;;;;;;;;;;24.00;48.80;;;;;;6191757;28;20517;-55
2022/05/16 01:17:39;;;;;;;;;;;23.80;48.70;;;;;;6177321;28;20043;-52
2022/05/16 01:20:50;;;;;;;;;;;23.70;48.70;;;;;;6201154;28;19929;-53
2022/05/16 01:23:54;;;;;;;;;;;23.90;48.90;;;;;;6197203;28;19967;-51
2022/05/16 01:26:55;;;;;;;;;;;23.70;48.80;;;;;;6194287;28;19970;-52
2022/05/16 01:29:57;;;;;;;;;;;24.00;49.00;;;;;;6186436;28;20189;-52
2022/05/16 01:32:58;;;;;;;;;;;23.90;49.00;;;;;;6184313;28;20007;-52
2022/05/16 01:35:59;;;;;;;;;;;24.00;49.00;;;;;;6184692;28;20278;-53
2022/05/16 01:39:01;;;;;;;;;;;23.50;48.80;;;;;;6188489;28;19924;-54
2022/05/16 01:42:03;;;;;;;;;;;24.00;49.60;;;;;;6188982;28;20180;-54
2022/05/16 01:45:05;;;;;;;;;;;23.80;48.90;;;;;;6191102;28;19928;-52
2022/05/16 01:48:07;;;;;;;;;;;23.70;48.90;;;;;;6171216;28;20076;-52
2022/05/16 01:51:11;;;;;;;;;;;23.90;48.90;;;;;;6185809;28;20111;-52
2022/05/16 01:54:12;;;;;;;;;;;23.90;48.90;;;;;;6171982;28;20081;-53
2022/05/16 01:57:14;;;;;;;;;;;23.50;48.80;;;;;;6185954;28;19969;-52
2022/05/16 02:00:16;;;;;;;;;;;24.00;49.10;;;;;;6187664;28;19971;-54
2022/05/16 02:03:18;;;;;;;;;;;23.70;48.90;;;;;;6187887;28;19968;-55
2022/05/16 02:06:19;;;;;;;;;;;23.90;49.00;;;;;;6175314;28;20547;-50
2022/05/16 02:09:21;;;;;;;;;;;23.50;48.80;;;;;;6186259;28;20767;-52
2022/05/16 02:12:23;;;;;;;;;;;23.80;49.00;;;;;;6186799;28;20364;-55
2022/05/16 02:15:26;;;;;;;;;;;23.90;49.00;;;;;;6194897;28;20189;-52
2022/05/16 02:18:27;;;;;;;;;;;23.90;49.10;;;;;;6190052;28;20512;-52
2022/05/16 02:24:43;;;;;;;;;;;24.10;49.20;;;;;;6188949;28;20131;-54
2022/05/16 02:27:45;;;;;;;;;;;24.10;49.20;;;;;;6189145;28;20328;-50
2022/05/16 02:30:47;;;;;;;;;;;23.70;49.00;;;;;;6192374;28;20187;-54
2022/05/16 02:33:49;;;;;;;;;;;23.90;49.20;;;;;;6192116;28;20436;-53
2022/05/16 02:36:52;;;;;;;;;;;23.60;49.10;;;;;;6181974;28;19972;-52
2022/05/16 02:39:54;;;;;;;;;;;23.50;49.00;;;;;;6179962;28;20008;-53
2022/05/16 02:42:56;;;;;;;;;;;23.60;49.10;;;;;;6192953;28;20318;-54
2022/05/16 02:45:57;;;;;;;;;;;23.50;49.00;;;;;;6194597;28;19925;-53
2022/05/16 02:48:59;;;;;;;;;;;23.90;49.20;;;;;;6190604;28;20692;-53
2022/05/16 02:52:00;;;;;;;;;;;23.80;49.20;;;;;;6192578;28;20110;-55
2022/05/16 02:55:02;;;;;;;;;;;23.60;49.20;;;;;;6191968;28;20393;-52
2022/05/16 02:58:06;;;;;;;;;;;23.60;49.20;;;;;;6194696;28;19998;-53
2022/05/16 03:01:07;;;;;;;;;;;23.40;49.10;;;;;;6188795;28;20387;-55
2022/05/16 03:04:09;;;;;;;;;;;23.70;49.20;;;;;;6182185;28;20718;-52
2022/05/16 03:07:10;;;;;;;;;;;23.70;49.30;;;;;;6192582;28;19956;-54
2022/05/16 03:10:15;;;;;;;;;;;23.40;49.20;;;;;;6194187;28;20048;-52
2022/05/16 03:13:16;;;;;;;;;;;23.90;49.40;;;;;;6188483;28;20015;-49
2022/05/16 03:16:18;;;;;;;;;;;23.60;49.30;;;;;;6183538;28;20268;-55
2022/05/16 03:19:19;;;;;;;;;;;23.90;49.50;;;;;;6191542;28;19929;-52
2022/05/16 03:22:21;;;;;;;;;;;23.30;49.20;;;;;;6189588;28;20164;-54
2022/05/16 03:25:23;;;;;;;;;;;23.90;49.60;;;;;;6190166;28;20271;-53
2022/05/16 03:28:25;;;;;;;;;;;23.70;49.40;;;;;;6197954;28;20012;-56
2022/05/16 03:31:27;;;;;;;;;;;23.60;49.40;;;;;;6197284;28;20386;-55
2022/05/16 03:34:28;;;;;;;;;;;23.40;49.30;;;;;;6193771;28;19932;-51
2022/05/16 03:37:30;;;;;;;;;;;23.30;49.20;;;;;;6193328;28;20182;-51
2022/05/16 03:43:49;;;;;;;;;;;23.80;49.50;;;;;;6187912;28;20020;-54
2022/05/16 03:46:51;;;;;;;;;;;23.50;49.40;;;;;;6183549;28;20790;-53
2022/05/16 03:49:52;;;;;;;;;;;23.80;49.50;;;;;;6187569;28;20040;-52
2022/05/16 03:52:54;;;;;;;;;;;23.70;49.60;;;;;;6192030;28;20028;-52
2022/05/16 03:55:56;;;;;;;;;;;23.60;49.50;;;;;;6194154;28;20328;-53
2022/05/16 03:58:57;;;;;;;;;;;23.60;49.50;;;;;;6193191;28;20001;-52
2022/05/16 04:01:59;;;;;;;;;;;23.40;49.40;;;;;;6176913;28;19986;-54
2022/05/16 04:05:00;;;;;;;;;;;24.00;49.70;;;;;;6173668;28;20229;-54
2022/05/16 04:08:02;;;;;;;;;;;23.40;49.50;;;;;;6183392;28;20662;-52
2022/05/16 04:11:04;;;;;;;;;;;23.70;49.70;;;;;;6185330;28;20778;-54
2022/05/16 04:14:05;;;;;;;;;;;23.70;49.70;;;;;;6167126;28;20567;-54
2022/05/16 04:17:07;;;;;;;;;;;23.70;49.70;;;;;;6184330;28;20399;-54
2022/05/16 04:20:09;;;;;;;;;;;23.40;49.60;;;;;;6186606;28;19952;-55
2022/05/16 04:23:11;;;;;;;;;;;23.60;49.70;;;;;;6170503;28;20004;-52
2022/05/16 04:26:13;;;;;;;;;;;23.70;49.80;;;;;;6154793;28;19925;-53
2022/05/16 04:29:15;;;;;;;;;;;23.50;49.70;;;;;;6172098;28;20066;-52
2022/05/16 04:32:16;;;;;;;;;;;23.70;49.90;;;;;;6160034;28;19929;-53
2022/05/16 04:35:17;;;;;;;;;;;23.60;49.80;;;;;;6182406;28;20466;-56
2022/05/16 04:38:20;;;;;;;;;;;23.60;49.80;;;;;;6183138;28;19963;-54
2022/05/16 04:44:38;;;;;;;;;;;23.60;49.80;;;;;;6184591;28;19967;-53
2022/05/16 04:47:40;;;;;;;;;;;23.30;49.70;;;;;;6188403;28;20042;-52
2022/05/16 04:50:42;;;;;;;;;;;23.90;50.10;;;;;;6191218;28;19931;-54
2022/05/16 04:53:43;;;;;;;;;;;23.60;49.90;;;;;;6164853;28;19928;-53
2022/05/16 04:56:46;;;;;;;;;;;23.60;50.00;;;;;;6185899;28;20633;-54
2022/05/16 04:59:49;;;;;;;;;;;23.10;49.70;;;;;;6185791;28;19968;-51
2022/05/16 05:02:50;;;;;;;;;;;23.50;49.90;;;;;;6187013;28;20219;-53
2022/05/16 05:05:57;;;;;;;;;;;23.40;49.90;;;;;;6184387;28;20583;-52
2022/05/16 05:08:58;;;;;;;;;;;23.60;50.00;;;;;;6194257;28;19931;-53
2022/05/16 05:15:14;;;;;;;;;;;23.50;50.00;;;;;;6195371;28;20068;-53
2022/05/16 05:18:16;;;;;;;;;;;23.40;49.90;;;;;;6187149;28;19971;-52
2022/05/16 05:21:17;;;;;;;;;;;23.60;50.10;;;;;;6184052;28;20372;-52
2022/05/16 05:24:20;;;;;;;;;;;23.60;50.10;;;;;;6188469;28;19925;-55
2022/05/16 05:27:22;;;;;;;;;;;23.50;50.00;;;;;;6185750;28;19952;-54
2022/05/16 05:30:24;;;;;;;;;;;23.50;50.00;;;;;;6180928;28;20021;-51
2022/05/16 05:33:25;;;;;;;;;;;23.50;50.00;;;;;;6169777;28;19987;-53
2022/05/16 05:36:28;;;;;;;;;;;23.40;50.10;;;;;;6176216;28;20031;-50
2022/05/16 05:39:31;;;;;;;;;;;23.70;50.00;;;;;;6184078;28;19928;-54
2022/05/16 05:42:34;;;;;;;;;;;23.30;50.00;;;;;;6178503;28;19983;-54
2022/05/16 05:45:35;;;;;;;;;;;23.40;50.00;;;;;;6184802;28;20019;-57
2022/05/16 05:48:37;;;;;;;;;;;23.70;50.20;;;;;;6167146;28;20470;-50
2022/05/16 05:51:38;;;;;;;;;;;23.50;50.00;;;;;;6181410;28;20048;-51
2022/05/16 05:54:40;;;;;;;;;;;23.50;50.00;;;;;;6179394;28;20015;-51
2022/05/16 05:57:42;;;;;;;;;;;23.60;50.20;;;;;;6189573;28;21199;-54
2022/05/16 06:00:43;;;;;;;;;;;23.30;49.90;;;;;;6185316;28;19976;-54
2022/05/16 06:03:45;;;;;;;;;;;23.40;50.10;;;;;;6161230;28;20712;-52
2022/05/16 06:06:47;;;;;;;;;;;23.50;50.10;;;;;;6182551;28;20672;-50
2022/05/16 06:09:49;;;;;;;;;;;23.30;50.00;;;;;;6180549;28;20912;-53
2022/05/16 06:12:51;;;;;;;;;;;23.30;50.00;;;;;;6176897;28;19936;-54
2022/05/16 06:15:52;;;;;;;;;;;23.60;50.10;;;;;;6161768;28;19929;-52
2022/05/16 06:18:53;;;;;;;;;;;23.70;50.20;;;;;;6159302;28;20062;-50
2022/05/16 06:21:55;;;;;;;;;;;23.50;50.10;;;;;;6116438;28;20299;-51
2022/05/16 06:28:15;;;;;;;;;;;23.30;50.00;;;;;;6136898;28;22204;-53
2022/05/16 06:31:16;;;;;;;;;;;23.50;50.00;;;;;;6130266;28;19971;-53
2022/05/16 06:34:18;;;;;;;;;;;23.70;50.20;;;;;;6124081;28;19933;-52
2022/05/16 06:37:19;;;;;;;;;;;23.70;50.20;;;;;;6103472;28;20051;-50
2022/05/16 06:40:21;;;;;;;;;;;23.70;50.20;;;;;;6119995;28;20323;-55
2022/05/16 06:43:24;;;;;;;;;;;23.60;50.10;;;;;;6132731;28;20069;-50
2022/05/16 06:46:25;;;;;;;;;;;23.50;50.10;;;;;;6099426;28;19929;-51
2022/05/16 06:49:27;;;;;;;;;;;23.60;50.10;;;;;;6118626;28;19936;-50
2022/05/16 06:52:28;;;;;;;;;;;23.70;50.10;;;;;;6109008;28;21181;-52
2022/05/16 06:55:30;;;;;;;;;;;23.60;50.10;;;;;;6102385;28;20047;-54
2022/05/16 06:58:32;;;;;;;;;;;23.60;50.10;;;;;;6074379;28;20022;-53
2022/05/16 07:01:34;;;;;;;;;;;23.70;50.10;;;;;;6056728;28;19929;-50
2022/05/16 07:04:39;;;;;;;;;;;23.60;50.00;;;;;;6033048;28;19936;-54
2022/05/16 07:07:41;;;;;;;;;;;23.60;50.00;;;;;;6024672;28;20274;-53
2022/05/16 07:10:42;;;;;;;;;;;23.60;50.00;;;;;;6001031;28;20030;-52
2022/05/16 07:13:44;;;;;;;;;;;23.90;50.20;;;;;;6013199;28;21289;-50
2022/05/16 07:16:46;;;;;;;;;;;23.80;50.10;;;;;;6028928;28;19932;-48
2022/05/16 07:19:49;;;;;;;;;;;23.80;50.10;;;;;;6036544;28;22004;-48
2022/05/16 07:22:51;;;;;;;;;;;23.80;50.10;;;;;;5979129;28;21020;-46
2022/05/16 07:29:09;;;;;;;;;;;23.60;49.90;;;;;;5971165;28;19932;-50
2022/05/16 07:32:11;;;;;;;;;;;23.90;50.10;;;;;;5984241;28;19930;-50
2022/05/16 07:35:22;;;;;;;;;;;24.00;50.10;;;;;;5975973;28;19929;-55
2022/05/16 07:38:25;;;;;;;;;;;23.90;50.00;;;;;;5972429;28;20937;-53
2022/05/16 07:41:29;;;;;;;;;;;23.80;49.90;;;;;;5985019;28;19929;-52
2022/05/16 07:44:32;;;;;;;;;;;23.70;49.80;;;;;;5974371;28;19999;-55
2022/05/16 07:47:34;;;;;;;;;;;23.90;49.80;;;;;;5964233;28;19929;-52
2022/05/16 07:50:36;;;;;;;;;;;24.00;49.90;;;;;;6007043;28;19941;-54
2022/05/16 07:53:37;;;;;;;;;;;24.00;49.90;;;;;;5991161;28;20146;-55
2022/05/16 07:56:39;;;;;;;;;;;23.60;49.60;;;;;;5934959;28;20235;-53
2022/05/16 07:59:41;;;;;;;;;;;24.00;49.80;;;;;;5944736;28;20959;-51
2022/05/16 08:02:43;;;;;;;;;;;23.80;49.70;;;;;;5937730;28;20501;-56
2022/05/16 08:05:44;;;;;;;;;;;24.10;49.80;;;;;;5949445;28;20380;-53
2022/05/16 08:12:02;;;;;;;;;;;24.20;49.90;;;;;;5971395;28;21086;-50
2022/05/16 08:15:05;;;;;;;;;;;24.30;49.80;;;;;;5965312;28;22701;-55
2022/05/16 08:18:07;;;;;;;;;;;24.10;49.70;;;;;;5972871;28;19982;-53
2022/05/16 08:21:10;;;;;;;;;;;24.00;49.70;;;;;;5986521;28;19988;-52
2022/05/16 08:24:11;;;;;;;;;;;24.10;49.70;;;;;;5969680;28;19929;-50
2022/05/16 08:27:13;;;;;;;;;;;24.20;49.80;;;;;;5952803;28;19955;-54
2022/05/16 08:30:15;;;;;;;;;;;23.80;49.50;;;;;;5955265;28;20601;-54
2022/05/16 08:33:16;;;;;;;;;;;24.40;49.70;;;;;;5925108;28;20814;-54
2022/05/16 08:43:17;;;;;;;;;;;24.00;49.50;;;;;;5962602;28;21548;-55
2022/05/16 08:46:26;;;;;;;;;;;24.30;49.70;;;;;;5949706;28;19929;-53
2022/05/16 08:49:30;;;;;;;;;;;24.40;49.60;;;;;;5927056;28;21167;-52
2022/05/16 08:52:36;;;;;;;;;;;24.10;49.50;;;;;;5969334;28;19968;-55
2022/05/16 08:55:39;;;;;;;;;;;24.40;49.60;;;;;;5939849;28;21018;-52
2022/05/16 08:58:43;;;;;;;;;;;24.30;49.50;;;;;;5978981;28;19928;-53
2022/05/16 09:01:49;;;;;;;;;;;24.40;49.50;;;;;;5971509;28;20026;-55
2022/05/16 09:04:53;;;;;;;;;;;24.20;49.40;;;;;;5959669;28;19928;-54
2022/05/16 09:07:56;;;;;;;;;;;24.20;49.40;;;;;;5980988;28;19978;-53
2022/05/16 09:11:03;;;;;;;;;;;24.50;49.60;;;;;;5979728;28;20026;-52
2022/05/16 09:14:06;;;;;;;;;;;24.40;49.50;;;;;;5981038;28;20010;-49
2022/05/16 09:17:12;;;;;;;;;;;24.60;49.60;;;;;;5966302;28;22955;-49
2022/05/16 09:20:18;;;;;;;;;;;24.50;49.60;;;;;;5986875;28;20990;-50
2022/05/16 09:23:25;;;;;;;;;;;24.80;50.30;;;;;;5992743;28;20051;-52
2022/05/16 09:26:34;;;;;;;;;;;24.50;49.50;;;;;;5997248;28;19932;-54
2022/05/16 09:29:39;;;;;;;;;;;24.60;49.60;;;;;;5986962;28;21026;-52
2022/05/16 09:32:43;;;;;;;;;;;24.70;49.60;;;;;;5941161;28;19929;-54
2022/05/16 09:35:47;;;;;;;;;;;24.50;49.50;;;;;;5959800;28;20055;-54
2022/05/16 09:38:49;;;;;;;;;;;24.50;49.50;;;;;;5944133;28;19929;-52
2022/05/16 09:41:54;;;;;;;;;;;24.20;49.40;;;;;;5949102;28;20014;-53
2022/05/16 09:44:57;;;;;;;;;;;24.40;49.50;;;;;;5972674;28;21325;-53
2022/05/16 09:47:59;;;;;;;;;;;24.70;49.60;;;;;;5952723;28;19936;-55
2022/05/16 09:51:02;;;;;;;;;;;24.50;49.50;;;;;;5951053;28;20007;-51
2022/05/16 09:54:09;;;;;;;;;;;24.50;49.50;;;;;;5976640;28;20051;-51
2022/05/16 09:57:20;;;;;;;;;;;24.20;49.30;;;;;;5996409;28;21421;-55
2022/05/16 10:00:23;;;;;;;;;;;24.50;49.50;;;;;;5964364;28;20071;-53
2022/05/16 10:03:29;;;;;;;;;;;24.60;49.50;;;;;;5951110;28;19928;-52
2022/05/16 10:06:31;;;;;;;;;;;24.50;49.50;;;;;;5959372;28;20344;-53
2022/05/16 10:09:36;;;;;;;;;;;24.50;49.50;;;;;;5972331;28;21384;-51
2022/05/16 10:12:39;;;;;;;;;;;24.30;49.30;;;;;;5946631;28;19929;-49
2022/05/16 10:15:41;;;;;;;;;;;24.50;49.50;;;;;;5963611;28;19964;-51
2022/05/16 10:18:45;;;;;;;;;;;24.50;49.50;;;;;;5990625;28;19968;-52
2022/05/16 10:21:50;;;;;;;;;;;24.50;49.50;;;;;;5992247;28;19978;-48
2022/05/16 10:24:53;;;;;;;;;;;24.40;49.40;;;;;;5982293;28;20138;-52
2022/05/16 10:27:55;;;;;;;;;;;24.50;49.50;;;;;;5994133;28;20842;-54
2022/05/16 10:34:16;;;;;;;;;;;24.40;49.40;;;;;;6020162;28;19929;-48
2022/05/16 10:37:17;;;;;;;;;;;24.50;49.40;;;;;;6044593;28;19967;-49
2022/05/16 10:40:23;;;;;;;;;;;23.20;48.90;;;;;;6058778;28;20055;-50
2022/05/16 10:43:29;;;;;;;;;;;24.50;49.50;;;;;;6075259;28;19929;-47
2022/05/16 10:46:33;;;;;;;;;;;24.50;49.40;;;;;;6040539;28;19928;-51
2022/05/16 10:49:38;;;;;;;;;;;24.40;49.30;;;;;;6068669;28;20014;-52
2022/05/16 10:52:42;;;;;;;;;;;24.50;49.40;;;;;;6085097;28;19929;-50
2022/05/16 10:55:50;;;;;;;;;;;24.40;49.50;;;;;;6068245;28;20916;-56
2022/05/16 10:58:58;;;;;;;;;;;24.40;49.30;;;;;;6097820;28;19944;-51
2022/05/16 11:02:04;;;;;;;;;;;24.50;49.40;;;;;;6065051;28;20964;-53
2022/05/16 11:05:13;;;;;;;;;;;24.50;49.30;;;;;;6069556;28;20044;-54
2022/05/16 11:08:22;;;;;;;;;;;24.30;49.20;;;;;;6065913;28;19936;-50
2022/05/16 11:11:27;;;;;;;;;;;24.50;49.30;;;;;;6072043;28;19929;-52
2022/05/16 11:14:32;;;;;;;;;;;24.40;49.30;;;;;;6049013;28;20059;-52
2022/05/16 11:17:39;;;;;;;;;;;24.50;49.30;;;;;;6075795;28;19929;-51
2022/05/16 11:20:43;;;;;;;;;;;24.50;49.30;;;;;;6021144;28;19928;-51
2022/05/16 11:23:48;;;;;;;;;;;24.50;49.30;;;;;;6045906;28;19929;-49
2022/05/16 11:26:53;;;;;;;;;;;24.30;49.20;;;;;;6087609;28;19929;-52
2022/05/16 11:30:01;;;;;;;;;;;24.50;49.20;;;;;;6060589;28;20003;-52
2022/05/16 11:33:08;;;;;;;;;;;24.50;49.20;;;;;;6054204;28;20257;-51
2022/05/16 11:36:17;;;;;;;;;;;24.50;49.20;;;;;;6003868;28;19936;-52
2022/05/16 11:39:22;;;;;;;;;;;24.60;49.30;;;;;;6036966;28;20070;-51
2022/05/16 11:42:27;;;;;;;;;;;24.50;49.30;;;;;;6013993;28;19929;-52
2022/05/16 11:45:34;;;;;;;;;;;24.60;49.30;;;;;;6040667;28;21620;-50
2022/05/16 11:48:38;;;;;;;;;;;24.60;49.30;;;;;;6014800;28;19936;-50
2022/05/16 11:52:05;;;;;;;;;;;24.40;49.20;;;;;;6009997;28;19960;-50
2022/05/16 12:01:45;;;;;;;;;;;24.60;49.20;;;;;;5977076;28;19953;-48
2022/05/16 12:04:49;;;;;;;;;;;24.70;49.20;;;;;;5950850;28;19936;-48
2022/05/16 12:08:01;;;;;;;;;;;24.70;49.30;;;;;;5972989;28;19929;-50
2022/05/16 12:11:10;;;;;;;;;;;24.60;49.20;;;;;;5978945;28;19935;-50
2022/05/16 12:14:21;;;;;;;;;;;24.60;49.30;;;;;;5997328;28;19929;-48
2022/05/16 12:17:26;;;;;;;;;;;24.60;49.30;;;;;;5978692;28;21246;-46
2022/05/16 12:20:37;;;;;;;;;;;24.60;49.20;;;;;;5979580;28;19929;-47
2022/05/16 12:23:52;;;;;;;;;;;24.70;49.30;;;;;;5982067;28;22396;-48
2022/05/16 12:27:03;;;;;;;;;;;24.60;49.30;;;;;;6016430;28;20000;-49
2022/05/16 12:30:08;;;;;;;;;;;24.20;49.20;;;;;;6013375;28;19933;-50
2022/05/16 12:33:30;;;;;;;;;;;24.60;49.30;;;;;;5984276;28;21610;-50
2022/05/16 12:36:31;;;;;;;;;;;24.70;49.30;;;;;;5966872;28;20006;-46
2022/05/16 12:39:37;;;;;;;;;;;24.40;49.20;;;;;;5978464;28;21243;-46
2022/05/16 12:42:51;;;;;;;;;;;24.60;49.30;;;;;;5994527;28;19929;-47
2022/05/16 12:46:04;;;;;;;;;;;24.70;49.70;;;;;;5980004;28;19929;-45
2022/05/16 12:49:14;;;;;;;;;;;24.60;49.30;;;;;;5998433;28;19936;-47
2022/05/16 12:52:25;;;;;;;;;;;24.60;49.30;;;;;;6007443;28;20014;-46
2022/05/16 12:55:33;;;;;;;;;;;24.50;49.20;;;;;;5992901;28;19929;-48
2022/05/16 12:58:40;;;;;;;;;;;24.60;48.70;;;;;;5994061;28;19936;-48
2022/05/16 13:01:44;;;;;;;;;;;24.70;49.30;;;;;;5960605;28;19933;-47
2022/05/16 13:04:56;;;;;;;;;;;24.50;49.20;;;;;;5963720;28;20145;-47
2022/05/16 13:08:03;;;;;;;;;;;24.60;49.30;;;;;;5981883;28;20009;-46
2022/05/16 13:11:10;;;;;;;;;;;24.60;49.20;;;;;;5986868;28;19928;-49
2022/05/16 13:14:13;;;;;;;;;;;24.70;49.40;;;;;;5995637;28;20378;-47
2022/05/16 13:17:26;;;;;;;;;;;24.70;49.20;;;;;;5984408;28;19936;-48
2022/05/16 13:20:31;;;;;;;;;;;24.60;49.20;;;;;;5982562;28;21309;-53
2022/05/16 13:23:32;;;;;;;;;;;24.70;49.30;;;;;;5977215;28;20834;-48
2022/05/16 13:29:52;;;;;;;;;;;24.60;49.20;;;;;;5958174;28;21192;-49
2022/05/16 13:32:54;;;;;;;;;;;24.90;50.10;;;;;;5939285;28;19929;-47
2022/05/16 13:36:12;;;;;;;;;;;24.60;49.20;;;;;;5911889;28;19929;-50
2022/05/16 13:39:14;;;;;;;;;;;24.70;49.30;;;;;;5954759;28;21080;-47
2022/05/16 13:42:20;;;;;;;;;;;24.60;49.30;;;;;;5972708;28;19929;-47
2022/05/16 13:45:24;;;;;;;;;;;24.70;49.40;;;;;;5955334;28;19935;-49
2022/05/16 13:48:26;;;;;;;;;;;24.70;49.30;;;;;;6017381;28;19936;-49
2022/05/16 13:51:29;;;;;;;;;;;24.60;49.20;;;;;;6003270;28;19929;-47
2022/05/16 13:54:32;;;;;;;;;;;24.60;49.30;;;;;;5974070;28;20506;-51
2022/05/16 13:57:33;;;;;;;;;;;24.60;49.20;;;;;;5983511;28;19929;-50
2022/05/16 14:00:36;;;;;;;;;;;24.60;49.30;;;;;;5974668;28;20076;-47
2022/05/16 14:03:39;;;;;;;;;;;24.60;49.30;;;;;;5957156;28;19936;-49
2022/05/16 14:06:46;;;;;;;;;;;24.50;49.30;;;;;;5968964;28;19936;-48
2022/05/16 14:09:49;;;;;;;;;;;24.70;49.30;;;;;;5952287;28;21810;-50
2022/05/16 14:12:52;;;;;;;;;;;24.60;49.30;;;;;;5984392;28;20023;-49
2022/05/16 14:15:55;;;;;;;;;;;24.50;49.20;;;;;;5982369;28;19929;-50
2022/05/16 14:19:01;;;;;;;;;;;24.70;49.40;;;;;;5987058;28;19937;-48
2022/05/16 14:22:08;;;;;;;;;;;24.70;49.30;;;;;;5996811;28;19979;-46
2022/05/16 14:25:10;;;;;;;;;;;24.30;49.10;;;;;;5970786;28;19929;-51
2022/05/16 14:28:24;;;;;;;;;;;24.70;49.40;;;;;;5979879;28;22514;-51
2022/05/16 14:31:27;;;;;;;;;;;24.70;49.30;;;;;;5968833;28;20026;-48
2022/05/16 14:34:31;;;;;;;;;;;24.60;49.40;;;;;;5935537;28;20389;-46
2022/05/16 14:37:33;;;;;;;;;;;24.60;49.40;;;;;;5971019;28;25140;-47
2022/05/16 14:40:37;;;;;;;;;;;24.60;49.40;;;;;;5967379;28;21267;-48
2022/05/16 14:43:39;;;;;;;;;;;24.70;49.40;;;;;;5947264;28;19929;-48
2022/05/16 14:46:43;;;;;;;;;;;24.70;49.50;;;;;;5960964;28;19929;-47
2022/05/16 14:49:47;;;;;;;;;;;24.70;49.40;;;;;;5996221;28;19929;-48
2022/05/16 14:52:52;;;;;;;;;;;24.80;49.50;;;;;;5999047;28;19986;-48
2022/05/16 14:55:54;;;;;;;;;;;24.60;49.40;;;;;;5982862;28;19929;-48
2022/05/16 14:58:56;;;;;;;;;;;24.60;49.50;;;;;;5982649;28;19989;-48
2022/05/16 15:05:13;;;;;;;;;;;24.60;49.40;;;;;;5953464;28;19937;-46
2022/05/16 15:08:17;;;;;;;;;;;24.60;49.40;;;;;;5966557;28;20067;-48
2022/05/16 15:11:19;;;;;;;;;;;24.60;49.40;;;;;;5976005;28;19936;-49
2022/05/16 15:14:21;;;;;;;;;;;24.70;49.50;;;;;;5984646;28;19929;-51
2022/05/16 15:17:26;;;;;;;;;;;24.70;49.50;;;;;;5969507;28;19933;-51
2022/05/16 15:20:28;;;;;;;;;;;24.60;49.40;;;;;;6021045;28;19930;-52
2022/05/16 15:23:30;;;;;;;;;;;24.70;49.50;;;;;;5994353;28;21470;-55
2022/05/16 15:26:31;;;;;;;;;;;24.60;49.40;;;;;;6002188;28;19929;-56
2022/05/16 15:29:36;;;;;;;;;;;24.70;49.50;;;;;;6024387;28;19972;-50
2022/05/16 15:32:38;;;;;;;;;;;24.60;49.40;;;;;;5996549;28;20044;-54
2022/05/16 15:35:42;;;;;;;;;;;24.70;49.50;;;;;;5986709;28;20063;-50
2022/05/16 15:38:44;;;;;;;;;;;24.50;49.30;;;;;;6000222;28;19929;-54
2022/05/16 15:41:46;;;;;;;;;;;24.40;49.30;;;;;;6015212;28;19929;-53
2022/05/16 15:44:51;;;;;;;;;;;25.10;49.60;;;;;;6025772;28;21101;-53
2022/05/16 15:47:53;;;;;;;;;;;24.80;49.50;;;;;;6009126;28;19936;-51
2022/05/16 15:50:55;;;;;;;;;;;24.70;49.40;;;;;;6007049;28;19929;-51
2022/05/16 15:53:56;;;;;;;;;;;24.70;49.30;;;;;;6028252;28;21144;-52
2022/05/16 15:56:57;;;;;;;;;;;24.70;49.30;;;;;;6051325;28;19930;-57
2022/05/16 16:00:04;;;;;;;;;;;24.70;49.30;;;;;;6062444;28;19936;-55
2022/05/16 16:08:39;;;;;;;;;;;24.80;49.30;;;;;;6033655;28;21165;-52
2022/05/16 16:10:11;;;;;;;;;;;24.70;49.20;;;;;;6071312;28;20031;-54
2022/05/16 16:13:13;;;;;;;;;;;24.90;49.30;;;;;;6078554;28;19940;-52
2022/05/16 16:16:15;;;;;;;;;;;24.70;49.20;;;;;;6089680;28;19932;-51
2022/05/16 16:19:18;;;;;;;;;;;25.00;49.30;;;;;;6096695;28;19929;-51
2022/05/16 16:22:20;;;;;;;;;;;24.80;49.20;;;;;;6085503;28;19936;-53
2022/05/16 16:25:25;;;;;;;;;;;24.80;49.20;;;;;;6086831;28;20000;-54
2022/05/16 16:28:26;;;;;;;;;;;24.50;49.10;;;;;;6103060;28;19929;-52
2022/05/16 16:31:28;;;;;;;;;;;24.80;49.30;;;;;;6113921;28;19937;-54
2022/05/16 16:34:30;;;;;;;;;;;24.80;49.30;;;;;;6107025;28;19929;-52
2022/05/16 16:37:32;;;;;;;;;;;24.90;49.30;;;;;;6117608;28;20059;-51
2022/05/16 16:40:35;;;;;;;;;;;24.70;49.20;;;;;;6121784;28;19986;-52
2022/05/16 16:43:39;;;;;;;;;;;24.80;49.30;;;;;;6118246;28;19933;-52
2022/05/16 16:46:41;;;;;;;;;;;24.80;49.40;;;;;;6118854;28;21093;-54
2022/05/16 16:49:42;;;;;;;;;;;24.80;49.20;;;;;;6141430;28;19929;-56
2022/05/16 16:59:12;;;;;;;;;;;24.90;49.30;;;;;;6136519;28;19929;-50
2022/05/16 17:02:17;;;;;;;;;;;24.80;49.30;;;;;;6139063;28;20112;-53
2022/05/16 17:05:19;;;;;;;;;;;24.70;49.20;;;;;;6110207;28;20883;-50
2022/05/16 17:08:22;;;;;;;;;;;24.70;49.20;;;;;;6106514;28;19937;-51
2022/05/16 17:11:24;;;;;;;;;;;24.90;49.30;;;;;;6135310;28;19929;-53
2022/05/16 17:14:25;;;;;;;;;;;24.80;49.30;;;;;;6119538;28;20036;-50
2022/05/16 17:17:26;;;;;;;;;;;24.90;49.30;;;;;;6125581;28;19929;-54
2022/05/16 17:20:28;;;;;;;;;;;24.90;49.30;;;;;;6124673;28;19943;-50
2022/05/16 17:23:31;;;;;;;;;;;24.80;49.20;;;;;;6137983;28;19975;-51
2022/05/16 17:26:32;;;;;;;;;;;24.70;49.20;;;;;;6142589;28;20906;-53
2022/05/16 17:29:34;;;;;;;;;;;24.70;49.20;;;;;;6140192;28;20068;-53
2022/05/16 17:32:35;;;;;;;;;;;24.90;49.30;;;;;;6106393;28;20244;-52
2022/05/16 17:35:38;;;;;;;;;;;24.90;49.30;;;;;;6089689;28;20499;-52
2022/05/16 17:38:40;;;;;;;;;;;24.80;49.30;;;;;;6117695;28;19929;-50
2022/05/16 17:41:44;;;;;;;;;;;24.70;49.20;;;;;;6118421;28;20191;-52
2022/05/16 17:44:46;;;;;;;;;;;25.10;49.50;;;;;;6130020;28;20345;-50
2022/05/16 17:47:47;;;;;;;;;;;24.90;49.30;;;;;;6125264;28;20626;-50
2022/05/16 17:50:49;;;;;;;;;;;24.90;49.30;;;;;;6131606;28;20008;-50
2022/05/16 17:53:53;;;;;;;;;;;24.80;49.30;;;;;;6131267;28;20930;-52
2022/05/16 17:56:56;;;;;;;;;;;24.80;49.30;;;;;;6136683;28;19987;-50
2022/05/16 17:59:57;;;;;;;;;;;24.90;49.40;;;;;;6134777;28;19929;-54
2022/05/16 18:02:59;;;;;;;;;;;24.70;49.30;;;;;;6149965;28;19929;-52
2022/05/16 18:06:00;;;;;;;;;;;24.80;49.50;;;;;;6165810;28;20002;-52
2022/05/16 18:09:03;;;;;;;;;;;24.70;49.50;;;;;;6155181;28;19929;-50
2022/05/16 18:15:23;;;;;;;;;;;24.60;49.40;;;;;;6156485;28;20761;-55
2022/05/16 18:18:26;;;;;;;;;;;24.40;49.30;;;;;;6157057;28;19955;-54
2022/05/16 18:21:27;;;;;;;;;;;24.50;49.40;;;;;;6149517;28;19936;-52
2022/05/16 18:24:29;;;;;;;;;;;24.60;49.60;;;;;;6155102;28;19937;-53
2022/05/16 18:27:31;;;;;;;;;;;24.40;49.30;;;;;;6158472;28;19930;-50
2022/05/16 18:30:34;;;;;;;;;;;24.60;49.40;;;;;;6158549;28;20811;-51
2022/05/16 18:33:35;;;;;;;;;;;24.60;49.40;;;;;;6166920;28;20785;-53
2022/05/16 18:36:37;;;;;;;;;;;24.60;49.40;;;;;;6165907;28;19929;-55
2022/05/16 18:39:39;;;;;;;;;;;24.70;49.40;;;;;;6166666;28;19967;-53
2022/05/16 18:52:23;;;;;;;;;;;24.50;49.20;;;;;;6165990;28;20010;-50
2022/05/16 18:55:26;;;;;;;;;;;24.70;49.30;;;;;;6156694;28;19929;-51
2022/05/16 18:58:28;;;;;;;;;;;24.80;49.30;;;;;;6161700;28;19925;-54